M I D A S
Marine Information and Data Acquisition System
Tripno 1027 of the Zeeleeuw from 2006-01-23 07:41:22 to 2006-01-23 14:12:29
Back to CruiseResearch ActivitiesStationsMapUnderway DataData graphs

EquipmentUnitsComment
TimeDGPSUTC
LatitudeDGPSDM.mWGS84
LongitudeDGPSDM.mWGS84
HeadingGyrodeg 
SOGDGPSknotsSpeed over ground
COGDGPSdegCourse over ground
DepthEcho soundermeters200 kHz
Missing or incorrect values are displayed as -999
Navigation data collected by the RV Zeeleeuw from 2006-01-23 07:10:03 to 2006-01-23 14:18:58
                                                                                    Next 1000 lines
Time Latitude Longitude Heading SOG COG Depth
2006-01-23 07:10:13 51°13.597 2°56.095 126.2 0.1 285 -999
2006-01-23 07:10:18 51°13.598 2°56.095 125.6 -999 303 -999
2006-01-23 07:10:23 51°13.598 2°56.095 125.5 -999 281 -999
2006-01-23 07:10:28 51°13.598 2°56.095 125.5 -999 302 -999
2006-01-23 07:10:33 51°13.598 2°56.095 125.5 -999 300 -999
2006-01-23 07:10:38 51°13.598 2°56.095 125.5 -999 102 -999
2006-01-23 07:10:43 51°13.598 2°56.095 125.5 -999 164 -999
2006-01-23 07:10:48 51°13.598 2°56.095 125.6 -999 159 -999
2006-01-23 07:10:53 51°13.598 2°56.096 125.6 -999 150 -999
2006-01-23 07:10:58 51°13.598 2°56.096 125.6 -999 175 -999
2006-01-23 07:11:03 51°13.598 2°56.096 125.6 -999 248 -999
2006-01-23 07:11:08 51°13.598 2°56.096 125.6 -999 145 -999
2006-01-23 07:11:13 51°13.598 2°56.096 125.7 -999 147 -999
2006-01-23 07:11:18 51°13.598 2°56.096 125.8 -999 292 -999
2006-01-23 07:11:23 51°13.598 2°56.096 125.8 -999 282 -999
2006-01-23 07:11:28 51°13.598 2°56.096 125.8 -999 289 -999
2006-01-23 07:11:33 51°13.598 2°56.096 125.8 -999 257 -999
2006-01-23 07:11:38 51°13.598 2°56.096 125.8 -999 299 -999
2006-01-23 07:11:43 51°13.598 2°56.096 125.7 -999 198 -999
2006-01-23 07:11:49 51°13.598 2°56.095 125.7 -999 272 -999
2006-01-23 07:11:53 51°13.598 2°56.095 125.7 -999 302 -999
2006-01-23 07:11:58 51°13.598 2°56.096 125.7 -999 131 -999
2006-01-23 07:12:03 51°13.598 2°56.096 125.7 -999 148 -999
2006-01-23 07:12:08 51°13.598 2°56.096 125.7 -999 114 -999
2006-01-23 07:12:13 51°13.598 2°56.096 125.7 -999 126 -999
2006-01-23 07:12:17 51°13.598 2°56.095 125.7 0.1 141 -999
2006-01-23 07:12:25 51°13.598 2°56.095 126.2 -999 178 -999
2006-01-23 07:12:31 51°13.598 2°56.095 126.2 -999 307 -999
2006-01-23 07:12:35 51°13.598 2°56.095 126.2 -999 294 -999
2006-01-23 07:12:41 51°13.598 2°56.095 126.2 0.1 309 -999
2006-01-23 07:12:45 51°13.598 2°56.095 126.1 0.1 302 -999
2006-01-23 07:12:51 51°13.598 2°56.095 125.9 -999 162 -999
2006-01-23 07:12:55 51°13.599 2°56.095 125.8 -999 168 -999
2006-01-23 07:13:00 51°13.599 2°56.095 125.7 -999 145 -999
2006-01-23 07:13:05 51°13.599 2°56.095 125.7 -999 262 -999
2006-01-23 07:13:10 51°13.599 2°56.095 125.7 -999 162 -999
2006-01-23 07:13:15 51°13.599 2°56.095 125.7 -999 223 -999
2006-01-23 07:13:20 51°13.599 2°56.095 125.7 -999 137 -999
2006-01-23 07:13:25 51°13.599 2°56.095 125.7 -999 120 -999
2006-01-23 07:13:30 51°13.599 2°56.094 125.7 -999 190 -999
2006-01-23 07:13:35 51°13.599 2°56.094 125.8 -999 176 -999
2006-01-23 07:13:40 51°13.599 2°56.095 126.1 -999 137 -999
2006-01-23 07:13:45 51°13.599 2°56.095 126.2 -999 126 -999
2006-01-23 07:13:50 51°13.599 2°56.095 126.2 -999 265 -999
2006-01-23 07:13:55 51°13.599 2°56.095 126.3 -999 283 -999
2006-01-23 07:14:00 51°13.599 2°56.094 126.3 -999 276 -999
2006-01-23 07:14:05 51°13.599 2°56.094 126.2 -999 289 -999
2006-01-23 07:14:10 51°13.599 2°56.094 126.1 -999 211 7.5
2006-01-23 07:14:13 51°13.599 2°56.094 125.9 -999 223 7.8
2006-01-23 07:14:17 51°13.599 2°56.094 125.8 -999 257 7.5
2006-01-23 07:14:22 51°13.599 2°56.094 125.7 -999 145 7.5
2006-01-23 07:14:27 51°13.599 2°56.094 125.7 -999 136 7.5
2006-01-23 07:14:32 51°13.599 2°56.094 125.7 0.1 145 7.5
2006-01-23 07:14:36 51°13.599 2°56.094 125.7 0.1 145 7.5
2006-01-23 07:14:41 51°13.599 2°56.094 125.7 -999 136 7.5
2006-01-23 07:14:47 51°13.599 2°56.094 125.7 -999 144 7.5
2006-01-23 07:14:52 51°13.599 2°56.095 125.7 0.1 132 7.5
2006-01-23 07:14:57 51°13.599 2°56.095 125.8 0.1 139 7.5
2006-01-23 07:15:01 51°13.599 2°56.095 126 -999 157 7.5
2006-01-23 07:15:07 51°13.599 2°56.095 126.1 0.1 133 5.6
2006-01-23 07:15:12 51°13.599 2°56.095 126.2 0.1 140 7.5
2006-01-23 07:15:16 51°13.599 2°56.095 126.4 -999 109 7.5
2006-01-23 07:15:22 51°13.599 2°56.095 126.6 -999 178 7.5
2006-01-23 07:15:26 51°13.599 2°56.095 126.8 -999 243 7.5
2006-01-23 07:15:32 51°13.599 2°56.095 127 -999 288 5.6
2006-01-23 07:15:37 51°13.599 2°56.095 127 -999 237 7.5
2006-01-23 07:15:41 51°13.599 2°56.095 127 -999 150 5.5
2006-01-23 07:15:47 51°13.599 2°56.094 126.7 -999 307 7.5
2006-01-23 07:15:52 51°13.599 2°56.094 126.6 -999 295 5.5
2006-01-23 07:15:57 51°13.599 2°56.094 126.5 -999 307 7.5
2006-01-23 07:16:01 51°13.599 2°56.094 126.4 -999 152 7.4
2006-01-23 07:16:07 51°13.599 2°56.095 126.3 -999 145 7.4
2006-01-23 07:16:11 51°13.599 2°56.095 126.3 -999 147 7.4
2006-01-23 07:16:17 51°13.599 2°56.095 126.3 -999 157 7.5
2006-01-23 07:16:22 51°13.599 2°56.095 126.3 -999 147 7.5
2006-01-23 07:16:27 51°13.599 2°56.095 126.3 -999 143 7.5
2006-01-23 07:16:31 51°13.599 2°56.095 126.3 0.1 141 7.4
2006-01-23 07:16:36 51°13.599 2°56.095 126.4 -999 146 5.6
2006-01-23 07:16:41 51°13.599 2°56.095 126.5 -999 234 7.5
2006-01-23 07:16:47 51°13.599 2°56.095 126.5 -999 264 7.4
2006-01-23 07:16:52 51°13.599 2°56.095 126.5 0.1 303 7.5
2006-01-23 07:16:56 51°13.599 2°56.095 126.5 0.1 316 7.5
2006-01-23 07:17:02 51°13.599 2°56.094 126.3 -999 302 5.6
2006-01-23 07:17:07 51°13.599 2°56.094 126.1 -999 278 7.5
2006-01-23 07:17:12 51°13.599 2°56.094 126 -999 246 7.5
2006-01-23 07:17:16 51°13.599 2°56.094 125.9 -999 298 7.5
2006-01-23 07:17:21 51°13.599 2°56.094 125.8 -999 304 7.5
2006-01-23 07:17:27 51°13.598 2°56.095 125.8 -999 334 7.4
2006-01-23 07:17:32 51°13.598 2°56.095 125.8 -999 273 7.5
2006-01-23 07:17:36 51°13.598 2°56.095 125.8 -999 129 7.5
2006-01-23 07:17:41 51°13.598 2°56.095 125.8 -999 128 7.5
2006-01-23 07:17:47 51°13.598 2°56.095 125.8 -999 144 7.5
2006-01-23 07:17:52 51°13.598 2°56.095 125.9 -999 280 7.5
2006-01-23 07:17:56 51°13.598 2°56.095 126.1 -999 305 7.5
2006-01-23 07:18:02 51°13.598 2°56.095 126.1 -999 316 7.5
2006-01-23 07:18:07 51°13.598 2°56.095 126.1 -999 193 7.5
2006-01-23 07:18:12 51°13.598 2°56.095 126.1 -999 194 7.5
2006-01-23 07:18:17 51°13.598 2°56.095 126.1 -999 232 5.6
2006-01-23 07:18:21 51°13.598 2°56.095 126.1 -999 164 7.5
2006-01-23 07:18:25 51°13.598 2°56.095 126 -999 309 5.6
2006-01-23 07:18:31 51°13.598 2°56.095 126 -999 290 7.5
2006-01-23 07:18:36 51°13.598 2°56.095 126 -999 307 5.6
2006-01-23 07:18:40 51°13.598 2°56.095 126 -999 138 7.5
2006-01-23 07:18:45 51°13.598 2°56.095 126 -999 113 7.5
2006-01-23 07:18:52 51°13.599 2°56.095 126 -999 359 7.5
2006-01-23 07:18:57 51°13.599 2°56.095 126 0.3 337 5.6
2006-01-23 07:19:02 51°13.599 2°56.095 126.2 0.3 340 7.5
2006-01-23 07:19:07 51°13.6 2°56.095 126.2 0.2 333 5.6
2006-01-23 07:19:12 51°13.6 2°56.094 126.3 0.1 346 7.5
2006-01-23 07:19:17 51°13.599 2°56.095 126.4 -999 355 7.5
2006-01-23 07:19:21 51°13.599 2°56.095 126.5 -999 238 7.5
2006-01-23 07:19:27 51°13.599 2°56.095 126.5 -999 187 7.5
2006-01-23 07:19:32 51°13.599 2°56.095 126.5 -999 289 5.6
2006-01-23 07:19:37 51°13.599 2°56.095 126.5 -999 303 7.4
2006-01-23 07:19:41 51°13.599 2°56.095 126.3 -999 161 7.5
2006-01-23 07:19:47 51°13.599 2°56.095 126.2 -999 252 7.5
2006-01-23 07:19:52 51°13.599 2°56.095 126.1 -999 259 7.5
2006-01-23 07:19:56 51°13.599 2°56.095 126 -999 310 7.5
2006-01-23 07:20:02 51°13.599 2°56.095 126 -999 139 7.5
2006-01-23 07:20:06 51°13.599 2°56.095 125.9 -999 147 7.5
2006-01-23 07:20:11 51°13.599 2°56.095 125.9 -999 142 7.5
2006-01-23 07:20:17 51°13.599 2°56.095 125.9 -999 151 7.5
2006-01-23 07:20:22 51°13.599 2°56.095 125.9 -999 146 7.5
2006-01-23 07:20:27 51°13.599 2°56.095 125.9 -999 186 7.5
2006-01-23 07:20:32 51°13.599 2°56.095 125.9 -999 232 7.5
2006-01-23 07:20:37 51°13.599 2°56.095 125.9 0.1 163 7.5
2006-01-23 07:20:41 51°13.599 2°56.095 125.9 -999 297 7.5
2006-01-23 07:20:45 51°13.599 2°56.095 125.9 -999 180 5.5
2006-01-23 07:20:52 51°13.599 2°56.094 125.9 0.1 168 7.5
2006-01-23 07:20:56 51°13.599 2°56.094 125.9 -999 159 7.5
2006-01-23 07:21:02 51°13.599 2°56.094 125.9 -999 288 7.5
2006-01-23 07:21:07 51°13.598 2°56.094 125.9 -999 159 7.5
2006-01-23 07:21:12 51°13.599 2°56.094 125.9 -999 161 7.5
2006-01-23 07:21:17 51°13.599 2°56.094 126 -999 291 5.6
2006-01-23 07:21:22 51°13.599 2°56.094 126 -999 274 7.5
2006-01-23 07:21:27 51°13.599 2°56.094 126 -999 160 5.6
2006-01-23 07:21:32 51°13.599 2°56.094 126 -999 251 7.5
2006-01-23 07:21:37 51°13.599 2°56.094 126 -999 132 7.5
2006-01-23 07:21:42 51°13.599 2°56.094 126 -999 143 7.5
2006-01-23 07:21:47 51°13.599 2°56.094 126 -999 207 7.4
2006-01-23 07:21:52 51°13.599 2°56.094 126 -999 187 7.4
2006-01-23 07:21:56 51°13.599 2°56.094 126 -999 143 7.5
2006-01-23 07:22:01 51°13.599 2°56.094 126 -999 327 7.5
2006-01-23 07:22:06 51°13.599 2°56.093 126 -999 163 7.5
2006-01-23 07:22:12 51°13.599 2°56.093 126 -999 135 7.5
2006-01-23 07:22:16 51°13.599 2°56.093 126 -999 161 7.5
2006-01-23 07:22:22 51°13.599 2°56.093 126 -999 148 7.5
2006-01-23 07:22:27 51°13.6 2°56.093 126 0.1 144 7.4
2006-01-23 07:22:32 51°13.6 2°56.093 126 -999 220 7.4
2006-01-23 07:22:37 51°13.6 2°56.093 126 -999 270 7.4
2006-01-23 07:22:41 51°13.6 2°56.093 126 -999 147 7.4
2006-01-23 07:22:46 51°13.6 2°56.093 126 -999 145 7.4
2006-01-23 07:22:52 51°13.6 2°56.093 126 -999 264 -999
2006-01-23 07:22:56 51°13.6 2°56.093 126 -999 73 7.4
2006-01-23 07:23:02 51°13.6 2°56.094 126 -999 132 7.4
2006-01-23 07:23:05 51°13.599 2°56.094 126 -999 146 7.4
2006-01-23 07:23:12 51°13.599 2°56.094 126 -999 258 7.4
2006-01-23 07:23:16 51°13.6 2°56.094 126 -999 167 7.4
2006-01-23 07:23:22 51°13.6 2°56.094 126 -999 145 7.4
2006-01-23 07:23:27 51°13.6 2°56.094 126 -999 156 5.6
2006-01-23 07:23:32 51°13.6 2°56.094 126 -999 201 7.4
2006-01-23 07:23:36 51°13.6 2°56.094 126 -999 297 7.5
2006-01-23 07:23:41 51°13.6 2°56.094 126 -999 290 7.5
2006-01-23 07:23:47 51°13.6 2°56.094 126 -999 168 7.4
2006-01-23 07:23:52 51°13.6 2°56.094 126 -999 152 7.4
2006-01-23 07:23:57 51°13.6 2°56.094 126.1 -999 253 7.4
2006-01-23 07:24:01 51°13.6 2°56.094 126.1 -999 268 7.4
2006-01-23 07:24:07 51°13.6 2°56.094 126.1 -999 190 7.4
2006-01-23 07:24:12 51°13.6 2°56.094 126.1 -999 135 7.4
2006-01-23 07:24:16 51°13.6 2°56.094 126.1 -999 150 7.4
2006-01-23 07:24:21 51°13.6 2°56.094 126.1 0.1 135 7.5
2006-01-23 07:24:27 51°13.6 2°56.094 126.1 0.1 145 5.6
2006-01-23 07:24:32 51°13.6 2°56.094 126.1 -999 139 7.4
2006-01-23 07:24:37 51°13.6 2°56.094 126.1 0.1 144 5.5
2006-01-23 07:24:41 51°13.6 2°56.094 126.1 -999 157 7.4
2006-01-23 07:24:45 51°13.601 2°56.094 126.1 -999 288 7.4
2006-01-23 07:24:52 51°13.601 2°56.094 126.2 -999 300 7.4
2006-01-23 07:24:57 51°13.601 2°56.094 126.2 -999 298 7.4
2006-01-23 07:25:02 51°13.601 2°56.094 126.2 -999 145 7.4
2006-01-23 07:25:07 51°13.601 2°56.094 126.2 -999 170 7.4
2006-01-23 07:25:11 51°13.601 2°56.094 126.2 -999 101 5.6
2006-01-23 07:25:17 51°13.601 2°56.094 126.2 -999 181 7.5
2006-01-23 07:25:22 51°13.601 2°56.094 126.2 -999 254 7.5
2006-01-23 07:25:27 51°13.601 2°56.094 126.2 -999 168 7.4
2006-01-23 07:25:31 51°13.601 2°56.094 126.2 -999 147 7.4
2006-01-23 07:25:37 51°13.601 2°56.094 126.2 -999 289 5.5
2006-01-23 07:25:42 51°13.6 2°56.095 126.2 -999 135 7.4
2006-01-23 07:25:47 51°13.6 2°56.095 126.1 -999 199 5.5
2006-01-23 07:25:52 51°13.6 2°56.095 126.1 -999 168 7.4
2006-01-23 07:25:57 51°13.6 2°56.095 126.1 -999 203 -999
2006-01-23 07:26:01 51°13.6 2°56.095 126.2 -999 128 7.6
2006-01-23 07:26:07 51°13.6 2°56.095 126.2 -999 141 7.4
2006-01-23 07:26:12 51°13.6 2°56.095 126.2 -999 216 7.5
2006-01-23 07:26:17 51°13.6 2°56.095 126.2 -999 214 7.5
2006-01-23 07:26:21 51°13.6 2°56.095 126.2 -999 144 -999
2006-01-23 07:26:27 51°13.6 2°56.095 126.2 -999 103 7.4
2006-01-23 07:26:32 51°13.6 2°56.095 126.2 -999 246 7.4
2006-01-23 07:26:36 51°13.6 2°56.095 126.2 -999 149 7.4
2006-01-23 07:26:42 51°13.6 2°56.095 126.2 -999 178 7.4
2006-01-23 07:26:46 51°13.6 2°56.095 126.2 -999 145 7.4
2006-01-23 07:26:52 51°13.6 2°56.095 126.2 -999 286 7.4
2006-01-23 07:26:57 51°13.6 2°56.095 126.2 -999 170 5.5
2006-01-23 07:27:01 51°13.6 2°56.095 126.2 -999 147 7.4
2006-01-23 07:27:05 51°13.6 2°56.095 126.2 -999 146 7.5
2006-01-23 07:27:12 51°13.6 2°56.095 126.2 -999 159 7.5
2006-01-23 07:27:17 51°13.6 2°56.095 126.1 -999 267 7.4
2006-01-23 07:27:21 51°13.6 2°56.095 126.1 -999 174 5.6
2006-01-23 07:27:27 51°13.6 2°56.095 126.1 -999 204 7.4
2006-01-23 07:27:32 51°13.6 2°56.095 126.1 -999 161 -999
2006-01-23 07:27:37 51°13.6 2°56.095 126.1 -999 210 7.4
2006-01-23 07:27:42 51°13.6 2°56.095 126.1 -999 144 5.6
2006-01-23 07:27:47 51°13.6 2°56.094 126.1 -999 149 7.4
2006-01-23 07:27:52 51°13.6 2°56.094 126.1 -999 129 7.4
2006-01-23 07:27:57 51°13.6 2°56.094 126.1 -999 170 7.4
2006-01-23 07:28:02 51°13.6 2°56.095 126.1 -999 148 7.4
2006-01-23 07:28:07 51°13.6 2°56.094 126.1 -999 318 7.4
2006-01-23 07:28:12 51°13.6 2°56.095 126.1 -999 157 7.4
2006-01-23 07:28:17 51°13.6 2°56.095 126.1 -999 151 5.6
2006-01-23 07:28:21 51°13.6 2°56.095 126.1 -999 319 7.4
2006-01-23 07:28:27 51°13.6 2°56.095 126.1 -999 240 7.4
2006-01-23 07:28:32 51°13.6 2°56.095 126.1 -999 187 7.4
2006-01-23 07:28:37 51°13.6 2°56.095 126.1 -999 290 7.4
2006-01-23 07:28:41 51°13.6 2°56.095 126.1 0.1 135 7.4
2006-01-23 07:28:47 51°13.6 2°56.095 126.1 -999 138 7.4
2006-01-23 07:28:52 51°13.6 2°56.095 126.1 -999 143 7.4
2006-01-23 07:28:57 51°13.6 2°56.095 126.1 -999 150 5.5
2006-01-23 07:29:01 51°13.599 2°56.095 126 -999 172 7.4
2006-01-23 07:29:07 51°13.599 2°56.096 126 -999 145 7.4
2006-01-23 07:29:12 51°13.599 2°56.096 126 -999 218 7.4
2006-01-23 07:29:17 51°13.599 2°56.096 126 -999 288 7.4
2006-01-23 07:29:21 51°13.599 2°56.096 126 -999 293 7.4
2006-01-23 07:29:25 51°13.599 2°56.096 126 -999 294 7.4
2006-01-23 07:29:32 51°13.599 2°56.095 126 -999 301 5.5
2006-01-23 07:29:37 51°13.599 2°56.096 126 -999 154 7.4
2006-01-23 07:29:42 51°13.599 2°56.096 126 -999 2 7.4
2006-01-23 07:29:46 51°13.599 2°56.096 126 -999 313 7.4
2006-01-23 07:29:52 51°13.599 2°56.095 126 -999 180 7.4
2006-01-23 07:29:57 51°13.599 2°56.095 126 0.1 297 5.5
2006-01-23 07:30:02 51°13.599 2°56.095 126 -999 307 7.4
2006-01-23 07:30:07 51°13.599 2°56.095 126 -999 309 5.6
2006-01-23 07:30:12 51°13.599 2°56.095 126 -999 315 7.5
2006-01-23 07:30:16 51°13.599 2°56.095 126 -999 311 7.4
2006-01-23 07:30:22 51°13.599 2°56.095 126 -999 128 7.4
2006-01-23 07:30:27 51°13.599 2°56.095 126 -999 162 5.5
2006-01-23 07:30:32 51°13.599 2°56.095 126 -999 154 7.4
2006-01-23 07:30:37 51°13.599 2°56.095 126 -999 150 7.4
2006-01-23 07:30:41 51°13.599 2°56.095 126 -999 194 7.4
2006-01-23 07:30:47 51°13.599 2°56.095 126 0.1 149 7.4
2006-01-23 07:30:52 51°13.599 2°56.095 126 -999 142 5.5
2006-01-23 07:30:57 51°13.599 2°56.095 126 -999 193 7.4
2006-01-23 07:31:02 51°13.599 2°56.095 126 -999 125 7.3
2006-01-23 07:31:07 51°13.599 2°56.095 126 -999 140 7.4
2006-01-23 07:31:12 51°13.599 2°56.095 126 -999 242 7.4
2006-01-23 07:31:16 51°13.599 2°56.095 126 -999 155 7.4
2006-01-23 07:31:21 51°13.599 2°56.095 126 0.1 137 7.4
2006-01-23 07:31:27 51°13.599 2°56.095 126 -999 143 7.4
2006-01-23 07:31:32 51°13.599 2°56.095 126 -999 149 7.4
2006-01-23 07:31:37 51°13.599 2°56.095 126 -999 284 5.5
2006-01-23 07:31:41 51°13.599 2°56.095 126 -999 150 7.4
2006-01-23 07:31:47 51°13.599 2°56.095 126 -999 147 7.4
2006-01-23 07:31:52 51°13.599 2°56.095 126 -999 140 7.4
2006-01-23 07:31:57 51°13.599 2°56.095 126 0.1 147 7.4
2006-01-23 07:32:02 51°13.599 2°56.095 126 -999 162 7.4
2006-01-23 07:32:07 51°13.599 2°56.095 126 -999 252 7.3
2006-01-23 07:32:12 51°13.599 2°56.095 126 -999 320 7.3
2006-01-23 07:32:17 51°13.599 2°56.095 126 -999 159 5.5
2006-01-23 07:32:20 51°13.599 2°56.095 126 -999 147 7.4
2006-01-23 07:32:27 51°13.599 2°56.095 126 -999 144 7.4
2006-01-23 07:32:32 51°13.599 2°56.095 126 -999 143 7.4
2006-01-23 07:32:36 51°13.599 2°56.095 126 -999 178 7.4
2006-01-23 07:32:42 51°13.599 2°56.095 126 -999 145 7.4
2006-01-23 07:32:47 51°13.599 2°56.095 126 -999 152 7.4
2006-01-23 07:32:52 51°13.599 2°56.095 126 -999 149 5.5
2006-01-23 07:32:57 51°13.599 2°56.095 126 -999 145 7.3
2006-01-23 07:33:01 51°13.599 2°56.095 126 -999 152 7.4
2006-01-23 07:33:07 51°13.599 2°56.096 126 -999 146 7.4
2006-01-23 07:33:12 51°13.599 2°56.096 126 -999 162 7.4
2006-01-23 07:33:17 51°13.599 2°56.096 126 -999 258 7.4
2006-01-23 07:33:21 51°13.599 2°56.096 126 -999 254 7.3
2006-01-23 07:33:27 51°13.599 2°56.096 126 -999 138 5.5
2006-01-23 07:33:32 51°13.599 2°56.096 126 -999 131 7.4
2006-01-23 07:33:37 51°13.599 2°56.096 126 -999 143 7.4
2006-01-23 07:33:41 51°13.599 2°56.096 126 -999 153 7.4
2006-01-23 07:33:46 51°13.599 2°56.096 126 -999 140 7.4
2006-01-23 07:33:52 51°13.599 2°56.096 126 -999 172 7.3
2006-01-23 07:33:57 51°13.599 2°56.096 126 -999 216 7.3
2006-01-23 07:34:01 51°13.599 2°56.096 126 -999 278 5.5
2006-01-23 07:34:06 51°13.599 2°56.096 126 -999 139 7.4
2006-01-23 07:34:12 51°13.599 2°56.095 126 -999 291 7.4
2006-01-23 07:34:17 51°13.599 2°56.095 126 -999 238 7.3
2006-01-23 07:34:21 51°13.599 2°56.095 126 -999 237 7.4
2006-01-23 07:34:27 51°13.599 2°56.095 126 -999 156 7.4
2006-01-23 07:34:32 51°13.599 2°56.095 126 -999 142 7.3
2006-01-23 07:34:37 51°13.599 2°56.095 126 -999 246 5.5
2006-01-23 07:34:42 51°13.599 2°56.095 126 -999 163 7.4
2006-01-23 07:34:47 51°13.599 2°56.095 126 -999 220 7.4
2006-01-23 07:34:52 51°13.599 2°56.095 126 -999 293 7.4
2006-01-23 07:34:56 51°13.599 2°56.095 126 -999 146 7.4
2006-01-23 07:35:02 51°13.599 2°56.095 126 -999 147 -999
2006-01-23 07:35:07 51°13.599 2°56.096 126 0.1 141 7.4
2006-01-23 07:35:12 51°13.599 2°56.095 126 -999 289 7.3
2006-01-23 07:35:16 51°13.599 2°56.095 126 -999 287 7.3
2006-01-23 07:35:21 51°13.599 2°56.095 126 -999 148 7.3
2006-01-23 07:35:25 51°13.599 2°56.095 126 -999 241 7.3
2006-01-23 07:35:32 51°13.599 2°56.095 126 -999 268 7.3
2006-01-23 07:35:36 51°13.599 2°56.095 126 -999 150 7.3
2006-01-23 07:35:41 51°13.599 2°56.095 126 -999 159 7.3
2006-01-23 07:35:45 51°13.599 2°56.095 126 0.1 113 7.3
2006-01-23 07:35:52 51°13.599 2°56.095 126.1 0.1 169 7.3
2006-01-23 07:35:56 51°13.599 2°56.095 126.2 -999 96 5.5
2006-01-23 07:36:01 51°13.599 2°56.095 126.3 -999 275 7.3
2006-01-23 07:36:05 51°13.6 2°56.095 126.4 -999 303 7.3
2006-01-23 07:36:12 51°13.6 2°56.095 126.4 -999 125 7.3
2006-01-23 07:36:17 51°13.6 2°56.095 126.4 -999 223 7.3
2006-01-23 07:36:21 51°13.6 2°56.095 126.4 -999 141 5.5
2006-01-23 07:36:25 51°13.6 2°56.095 126.4 -999 138 7.3
2006-01-23 07:36:32 51°13.6 2°56.095 126.4 -999 257 7.3
2006-01-23 07:36:36 51°13.6 2°56.095 126.4 -999 294 7.3
2006-01-23 07:36:41 51°13.6 2°56.095 126.4 -999 302 7.3
2006-01-23 07:36:45 51°13.601 2°56.095 126.4 -999 331 5.5
2006-01-23 07:36:51 51°13.6 2°56.095 126.4 -999 311 7.3
2006-01-23 07:36:57 51°13.6 2°56.095 126.4 -999 282 7.3
2006-01-23 07:37:01 51°13.6 2°56.095 126.4 -999 137 7.3
2006-01-23 07:37:06 51°13.6 2°56.095 126.4 -999 121 7.3
2006-01-23 07:37:12 51°13.6 2°56.095 126.4 -999 165 7.3
2006-01-23 07:37:16 51°13.6 2°56.094 126.4 -999 285 7.3
2006-01-23 07:37:22 51°13.6 2°56.095 126.5 -999 155 7.3
2006-01-23 07:37:27 51°13.6 2°56.095 126.5 -999 144 5.5
2006-01-23 07:37:31 51°13.6 2°56.095 126.4 -999 193 7.3
2006-01-23 07:37:37 51°13.6 2°56.095 126.4 -999 172 7.3
2006-01-23 07:37:41 51°13.6 2°56.095 126.4 -999 294 7.3
2006-01-23 07:37:45 51°13.6 2°56.095 126.4 -999 294 7.3
2006-01-23 07:37:52 51°13.6 2°56.095 126.4 -999 217 7.3
2006-01-23 07:37:56 51°13.6 2°56.095 126.4 -999 161 7.3
2006-01-23 07:38:01 51°13.6 2°56.095 126.4 -999 136 7.2
2006-01-23 07:38:06 51°13.6 2°56.095 126.4 -999 134 7.3
2006-01-23 07:38:11 51°13.6 2°56.095 126.4 0.1 123 7.4
2006-01-23 07:38:16 51°13.599 2°56.096 126.4 0.1 117 5.5
2006-01-23 07:38:21 51°13.599 2°56.096 126.4 0.1 125 7.2
2006-01-23 07:38:26 51°13.599 2°56.096 126.3 0.1 141 5.5
2006-01-23 07:38:32 51°13.599 2°56.096 126.1 0.1 128 7.2
2006-01-23 07:38:37 51°13.599 2°56.096 125.9 0.1 133 7.2
2006-01-23 07:38:42 51°13.599 2°56.096 125.9 -999 268 7.2
2006-01-23 07:38:47 51°13.599 2°56.096 125.6 0.1 269 7.2
2006-01-23 07:38:52 51°13.599 2°56.096 125.5 -999 234 7.2
2006-01-23 07:38:57 51°13.599 2°56.096 125.5 -999 41 7.3
2006-01-23 07:39:01 51°13.599 2°56.096 125.5 -999 130 5.4
2006-01-23 07:39:05 51°13.599 2°56.096 125.4 -999 100 7.3
2006-01-23 07:39:12 51°13.599 2°56.096 125.2 -999 108 7.2
2006-01-23 07:39:16 51°13.598 2°56.097 125.1 -999 250 -999
2006-01-23 07:39:21 51°13.598 2°56.097 124.9 -999 322 7.2
2006-01-23 07:39:25 51°13.598 2°56.097 124.9 -999 278 7.2
2006-01-23 07:39:31 51°13.598 2°56.097 124.9 -999 147 7.2
2006-01-23 07:39:36 51°13.598 2°56.097 124.9 -999 173 7.2
2006-01-23 07:39:41 51°13.598 2°56.097 124.9 -999 340 5.4
2006-01-23 07:39:45 51°13.598 2°56.097 124.9 -999 205 7.2
2006-01-23 07:39:52 51°13.598 2°56.097 124.9 -999 305 7.2
2006-01-23 07:39:56 51°13.598 2°56.097 124.9 -999 290 7.2
2006-01-23 07:40:01 51°13.598 2°56.097 124.9 -999 163 7.2
2006-01-23 07:40:06 51°13.598 2°56.097 125 -999 306 7.2
2006-01-23 07:40:11 51°13.598 2°56.097 125 -999 303 7.2
2006-01-23 07:40:16 51°13.598 2°56.097 125 -999 302 5.4
2006-01-23 07:40:21 51°13.598 2°56.097 125.1 -999 145 7.2
2006-01-23 07:40:27 51°13.598 2°56.097 125.1 -999 127 5.4
2006-01-23 07:40:32 51°13.598 2°56.097 125 -999 153 7.2
2006-01-23 07:40:36 51°13.598 2°56.097 124.8 -999 336 7.2
2006-01-23 07:40:41 51°13.598 2°56.098 124.3 0.1 135 7.2
2006-01-23 07:40:47 51°13.597 2°56.097 123.5 0.1 147 7.2
2006-01-23 07:40:51 51°13.597 2°56.097 122.4 0.1 177 7.2
2006-01-23 07:40:57 51°13.597 2°56.097 121.2 0.1 214 7.2
2006-01-23 07:41:01 51°13.597 2°56.097 119.9 -999 257 7.2
2006-01-23 07:41:07 51°13.597 2°56.097 118.7 0.1 194 7.2
2006-01-23 07:41:11 51°13.596 2°56.097 117.3 0.1 270 7.2
2006-01-23 07:41:16 51°13.596 2°56.097 116 0.1 263 7.2
2006-01-23 07:41:21 51°13.596 2°56.096 114.9 0.3 279 7.3
2006-01-23 07:41:25 51°13.596 2°56.095 114.3 0.6 282 7.3
2006-01-23 07:41:31 51°13.597 2°56.092 113.8 0.9 287 7.6
2006-01-23 07:41:36 51°13.598 2°56.09 113.8 1.2 289 7.9
2006-01-23 07:41:42 51°13.598 2°56.086 113.9 1.4 290 8.3
2006-01-23 07:41:47 51°13.599 2°56.082 114.5 1.6 291 7.5
2006-01-23 07:41:52 51°13.6 2°56.078 115.1 1.9 293 -999
2006-01-23 07:41:57 51°13.602 2°56.074 116 2.2 295 -999
2006-01-23 07:42:02 51°13.603 2°56.069 116.7 2.3 295 -999
2006-01-23 07:42:07 51°13.604 2°56.064 117.2 2.5 296 -999
2006-01-23 07:42:12 51°13.606 2°56.058 117.6 2.6 294 -999
2006-01-23 07:42:17 51°13.607 2°56.053 117.6 2.7 295 -999
2006-01-23 07:42:21 51°13.608 2°56.048 117.7 2.9 294 -999
2006-01-23 07:42:27 51°13.611 2°56.041 117.6 3 294 -999
2006-01-23 07:42:32 51°13.612 2°56.034 117.3 3.1 294 -999
2006-01-23 07:42:37 51°13.614 2°56.028 116.9 3.2 293 -999
2006-01-23 07:42:41 51°13.615 2°56.022 116.6 3.3 292 -999
2006-01-23 07:42:47 51°13.618 2°56.014 116.4 3.4 293 -999
2006-01-23 07:42:52 51°13.619 2°56.007 116.3 3.5 292 -999
2006-01-23 07:42:57 51°13.621 2°56 116.3 3.5 291 -999
2006-01-23 07:43:01 51°13.623 2°55.994 116.5 3.6 292 -999
2006-01-23 07:43:07 51°13.625 2°55.985 116.8 3.7 293 -999
2006-01-23 07:43:12 51°13.628 2°55.977 117.3 3.7 293 -999
2006-01-23 07:43:17 51°13.63 2°55.969 117.9 3.8 293 -999
2006-01-23 07:43:21 51°13.632 2°55.962 118.5 4 294 -999
2006-01-23 07:43:27 51°13.635 2°55.952 119.2 4.3 295 -999
2006-01-23 07:43:32 51°13.638 2°55.943 120.1 4.5 296 -999
2006-01-23 07:43:37 51°13.641 2°55.934 121.1 4.7 296 -999
2006-01-23 07:43:41 51°13.643 2°55.926 121.5 4.7 297 -999
2006-01-23 07:43:47 51°13.647 2°55.914 121.9 4.9 297 -999
2006-01-23 07:43:52 51°13.65 2°55.905 122.3 5 298 -999
2006-01-23 07:43:57 51°13.654 2°55.894 122.6 5.1 298 -999
2006-01-23 07:44:01 51°13.657 2°55.886 122.9 5.2 299 -999
2006-01-23 07:44:07 51°13.661 2°55.874 123.2 5.3 299 -999
2006-01-23 07:44:12 51°13.665 2°55.864 123.3 5.3 299 -999
2006-01-23 07:44:17 51°13.668 2°55.853 123.2 5.3 299 -999
2006-01-23 07:44:21 51°13.671 2°55.845 122.7 5.4 299 -999
2006-01-23 07:44:27 51°13.676 2°55.832 122 5.6 299 -999
2006-01-23 07:44:32 51°13.68 2°55.821 121 5.7 298 -999
2006-01-23 07:44:37 51°13.683 2°55.81 119.7 5.5 298 -999
2006-01-23 07:44:41 51°13.686 2°55.802 118.3 5.2 297 -999
2006-01-23 07:44:47 51°13.689 2°55.791 116.8 4.9 295 -999
2006-01-23 07:44:52 51°13.692 2°55.781 115 4.7 293 -999
2006-01-23 07:44:57 51°13.694 2°55.772 113.1 4.5 291 13.3
2006-01-23 07:45:01 51°13.696 2°55.765 111.3 4.5 291 -999
2006-01-23 07:45:05 51°13.698 2°55.758 109.5 4.2 289 14.6
2006-01-23 07:45:12 51°13.7 2°55.746 107.3 4 288 14.4
2006-01-23 07:45:17 51°13.702 2°55.738 104.8 3.8 287 -999
2006-01-23 07:45:21 51°13.703 2°55.733 102.8 3.4 286 -999
2006-01-23 07:45:27 51°13.704 2°55.725 99.8 3 285 15.1
2006-01-23 07:45:32 51°13.704 2°55.72 97.4 2.4 281 15.6
2006-01-23 07:45:37 51°13.705 2°55.716 94.3 1.9 285 16
2006-01-23 07:45:41 51°13.705 2°55.714 89.7 1.6 284 16
2006-01-23 07:45:47 51°13.706 2°55.712 85.8 1 291 16.1
2006-01-23 07:45:51 51°13.706 2°55.711 80 0.8 292 15.5
2006-01-23 07:45:57 51°13.707 2°55.71 75.2 0.6 306 15.3
2006-01-23 07:46:01 51°13.707 2°55.71 71.1 0.6 326 14.4
2006-01-23 07:46:05 51°13.708 2°55.71 64.7 0.6 358 13.3
2006-01-23 07:46:12 51°13.71 2°55.711 59 0.7 2 12.9
2006-01-23 07:46:17 51°13.711 2°55.711 53.2 0.9 12 12.7
2006-01-23 07:46:21 51°13.713 2°55.712 47.1 1 10 12.4
2006-01-23 07:46:27 51°13.715 2°55.712 42.6 1.2 12 12.4
2006-01-23 07:46:32 51°13.716 2°55.713 35.6 1.4 9 12.4
2006-01-23 07:46:36 51°13.718 2°55.713 30.2 1.5 6 12.5
2006-01-23 07:46:41 51°13.721 2°55.713 24.8 1.6 4 12.3
2006-01-23 07:46:47 51°13.724 2°55.713 20.8 1.7 2 12
2006-01-23 07:46:52 51°13.727 2°55.713 15.7 2 359 12
2006-01-23 07:46:57 51°13.73 2°55.712 10.3 2 359 12
2006-01-23 07:47:01 51°13.733 2°55.711 4.8 2.4 354 11.1
2006-01-23 07:47:07 51°13.737 2°55.71 359.1 2.8 346 11.7
2006-01-23 07:47:12 51°13.742 2°55.707 353.3 3 342 11.8
2006-01-23 07:47:17 51°13.746 2°55.704 348.1 3.2 340 11.8
2006-01-23 07:47:21 51°13.749 2°55.702 342.5 3.5 336 11.3
2006-01-23 07:47:27 51°13.755 2°55.697 340.1 3.8 336 11.3
2006-01-23 07:47:32 51°13.76 2°55.693 338.5 4 334 11.1
2006-01-23 07:47:37 51°13.766 2°55.689 337.7 4.3 334 11.2
2006-01-23 07:47:41 51°13.77 2°55.685 337.4 4.6 334 11.4
2006-01-23 07:47:45 51°13.775 2°55.681 337.3 4.9 333 11.5
2006-01-23 07:47:51 51°13.783 2°55.675 337.2 5.1 333 10.9
2006-01-23 07:47:57 51°13.791 2°55.668 337.2 5.4 333 11.1
2006-01-23 07:48:01 51°13.796 2°55.664 337.8 5.5 334 11
2006-01-23 07:48:05 51°13.802 2°55.659 337.9 5.7 333 11.3
2006-01-23 07:48:11 51°13.811 2°55.652 337.5 5.9 333 11.3
2006-01-23 07:48:17 51°13.82 2°55.645 337.4 6.1 333 11.3
2006-01-23 07:48:21 51°13.826 2°55.64 337.4 6.1 333 11.2
2006-01-23 07:48:27 51°13.836 2°55.632 337.3 6.3 332 11.2
2006-01-23 07:48:32 51°13.844 2°55.626 336.9 6.4 333 11.2
2006-01-23 07:48:36 51°13.85 2°55.62 336.7 6.5 333 11
2006-01-23 07:48:41 51°13.858 2°55.613 336.8 6.6 332 10.9
2006-01-23 07:48:47 51°13.868 2°55.605 337.2 6.7 333 11.2
2006-01-23 07:48:52 51°13.877 2°55.598 337.2 6.7 332 11
2006-01-23 07:48:56 51°13.884 2°55.592 337.1 6.9 332 11.2
2006-01-23 07:49:01 51°13.892 2°55.585 336.6 7 332 11.2
2006-01-23 07:49:05 51°13.899 2°55.579 336.3 7 332 11.2
2006-01-23 07:49:12 51°13.911 2°55.569 336.6 7 333 11.2
2006-01-23 07:49:17 51°13.92 2°55.562 337.3 7.1 332 11.3
2006-01-23 07:49:21 51°13.927 2°55.556 337.5 7.1 332 11.3
2006-01-23 07:49:27 51°13.938 2°55.547 337.7 7.1 333 11.2
2006-01-23 07:49:31 51°13.945 2°55.542 338.5 7.2 334 11.2
2006-01-23 07:49:37 51°13.956 2°55.533 339.3 7.2 335 11.2
2006-01-23 07:49:41 51°13.963 2°55.528 340 7.2 335 11.1
2006-01-23 07:49:47 51°13.974 2°55.52 340.3 7.2 335 11.2
2006-01-23 07:49:51 51°13.981 2°55.515 341 7.2 336 11.1
2006-01-23 07:49:57 51°13.992 2°55.507 341.1 7.2 335 11.2
2006-01-23 07:50:01 51°14 2°55.502 340.9 7.2 336 11.2
2006-01-23 07:50:05 51°14.007 2°55.496 341.1 7.2 336 11.2
2006-01-23 07:50:12 51°14.02 2°55.488 341.5 7.1 337 11.1
2006-01-23 07:50:17 51°14.028 2°55.481 341.8 7 336 11.1
2006-01-23 07:50:21 51°14.035 2°55.476 341.8 6.9 336 10.9
2006-01-23 07:50:25 51°14.042 2°55.471 341.8 6.8 337 11.1
2006-01-23 07:50:32 51°14.054 2°55.464 341.8 6.7 337 11.2
2006-01-23 07:50:37 51°14.062 2°55.458 342 6.6 337 11.2
2006-01-23 07:50:41 51°14.069 2°55.453 342 6.5 337 11.2
2006-01-23 07:50:46 51°14.077 2°55.447 341.9 6.5 337 11.2
2006-01-23 07:50:52 51°14.087 2°55.44 341.8 6.6 337 11.3
2006-01-23 07:50:56 51°14.094 2°55.435 341.8 6.7 337 11.3
2006-01-23 07:51:01 51°14.103 2°55.429 341.6 7 336 11.3
2006-01-23 07:51:07 51°14.114 2°55.421 341.3 7.1 336 11.3
2006-01-23 07:51:12 51°14.123 2°55.414 340.9 7.2 335 11.3
2006-01-23 07:51:16 51°14.13 2°55.408 340.2 7.4 334 11.3
2006-01-23 07:51:21 51°14.14 2°55.401 339.2 7.5 334 11.3
2006-01-23 07:51:27 51°14.152 2°55.391 338.6 7.9 332 11.3
2006-01-23 07:51:32 51°14.162 2°55.383 337.6 8.2 331 11.3
2006-01-23 07:51:36 51°14.171 2°55.375 336.5 8.5 330 11.3
2006-01-23 07:51:41 51°14.181 2°55.364 334.7 8.8 329 11.3
2006-01-23 07:51:47 51°14.194 2°55.351 333.5 9.1 327 11.3
2006-01-23 07:51:52 51°14.204 2°55.339 331.8 9.2 325 11.2
2006-01-23 07:51:57 51°14.215 2°55.326 330.1 9.4 323 11.2
2006-01-23 07:52:01 51°14.223 2°55.315 328.2 9.5 322 11.2
2006-01-23 07:52:05 51°14.231 2°55.304 326.8 9.7 320 11.2
2006-01-23 07:52:12 51°14.245 2°55.284 325.1 9.7 318 11.2
2006-01-23 07:52:17 51°14.255 2°55.269 322.9 9.9 316 11.2
2006-01-23 07:52:21 51°14.263 2°55.256 321.2 9.9 315 11.3
2006-01-23 07:52:25 51°14.27 2°55.243 320 10 313 11.3
2006-01-23 07:52:31 51°14.282 2°55.223 318.7 10 312 11.3
2006-01-23 07:52:37 51°14.292 2°55.202 316.9 10.2 310 11.6
2006-01-23 07:52:41 51°14.3 2°55.188 315.9 10.4 310 11.3
2006-01-23 07:52:45 51°14.307 2°55.174 315.7 10.5 310 11.3
2006-01-23 07:52:52 51°14.32 2°55.148 315.1 10.6 308 11.3
2006-01-23 07:52:57 51°14.329 2°55.129 314.1 10.8 307 11.3
2006-01-23 07:53:01 51°14.337 2°55.113 313.1 10.9 307 11.3
2006-01-23 07:53:07 51°14.347 2°55.09 312.3 10.9 306 11.3
2006-01-23 07:53:12 51°14.357 2°55.07 311.7 11 306 11.4
2006-01-23 07:53:16 51°14.364 2°55.055 312.2 11.2 308 11.5
2006-01-23 07:53:21 51°14.374 2°55.036 313.8 11.1 310 11.5
2006-01-23 07:53:27 51°14.387 2°55.014 316 11.1 313 11.4
2006-01-23 07:53:32 51°14.398 2°54.996 318.4 11.2 314 11.3
2006-01-23 07:53:36 51°14.407 2°54.983 320.1 11.2 316 11.2
2006-01-23 07:53:41 51°14.418 2°54.966 322.4 11.1 317 11.4
2006-01-23 07:53:47 51°14.432 2°54.946 323.3 11.1 317 11.3
2006-01-23 07:53:52 51°14.444 2°54.929 323 11.3 316 11.3
2006-01-23 07:53:56 51°14.453 2°54.915 322.5 11.4 317 11.3
2006-01-23 07:54:01 51°14.465 2°54.897 322.3 11.6 317 11.3
2006-01-23 07:54:05 51°14.475 2°54.884 323.3 11.8 319 11.2
2006-01-23 07:54:12 51°14.493 2°54.86 324.3 12 319 11.1
2006-01-23 07:54:17 51°14.506 2°54.842 324.4 12.2 320 11
2006-01-23 07:54:21 51°14.517 2°54.828 325.1 12.5 322 10.7
2006-01-23 07:54:25 51°14.529 2°54.816 327.3 12.6 325 10.7
2006-01-23 07:54:32 51°14.55 2°54.794 328.8 12.9 327 10.7
2006-01-23 07:54:37 51°14.566 2°54.78 330.6 13 330 10.6
2006-01-23 07:54:41 51°14.579 2°54.768 332.8 13.1 331 10.6
2006-01-23 07:54:45 51°14.592 2°54.758 334 13.2 332 10.6
2006-01-23 07:54:51 51°14.611 2°54.742 335.4 13.2 333 10.6
2006-01-23 07:54:57 51°14.63 2°54.725 335.9 13.2 331 10.4
2006-01-23 07:55:01 51°14.643 2°54.714 335.3 13.3 332 10.6
2006-01-23 07:55:05 51°14.656 2°54.702 335.2 13.3 331 10.6
2006-01-23 07:55:12 51°14.679 2°54.683 335 13.3 331 10.6
2006-01-23 07:55:16 51°14.692 2°54.671 335 13.4 331 10.5
2006-01-23 07:55:21 51°14.708 2°54.657 335.2 13.4 331 10.4
2006-01-23 07:55:25 51°14.721 2°54.645 334.9 13.3 330 10.5
2006-01-23 07:55:32 51°14.744 2°54.624 334.5 13.4 330 10.5
2006-01-23 07:55:36 51°14.756 2°54.612 333.8 13.3 328 10.5
2006-01-23 07:55:41 51°14.772 2°54.596 333.1 13.3 328 10.3
2006-01-23 07:55:45 51°14.784 2°54.584 332.7 13.3 329 10.3
2006-01-23 07:55:52 51°14.807 2°54.563 332.6 13.4 329 10.2
2006-01-23 07:55:56 51°14.82 2°54.551 333 13.4 330 10.1
2006-01-23 07:56:01 51°14.836 2°54.537 334 13.4 331 10.1
2006-01-23 07:56:05 51°14.849 2°54.526 334.8 13.3 332 10
2006-01-23 07:56:11 51°14.869 2°54.509 335.5 13.3 332 10.5
2006-01-23 07:56:16 51°14.885 2°54.495 336 13.4 332 10.3
2006-01-23 07:56:21 51°14.901 2°54.481 336 13.5 332 10.3
2006-01-23 07:56:26 51°14.918 2°54.467 336.1 13.5 332 10.1
2006-01-23 07:56:32 51°14.938 2°54.45 335.9 13.4 332 9.9
2006-01-23 07:56:36 51°14.951 2°54.438 335.5 13.4 331 9.7
2006-01-23 07:56:41 51°14.967 2°54.424 335 13.4 331 9.7
2006-01-23 07:56:45 51°14.98 2°54.412 334.5 13.3 331 9.6
2006-01-23 07:56:52 51°15.002 2°54.392 334 13.2 330 9.4
2006-01-23 07:56:56 51°15.015 2°54.38 333.6 13.3 330 9.4
2006-01-23 07:57:01 51°15.03 2°54.365 333.4 13.3 330 9.4
2006-01-23 07:57:07 51°15.05 2°54.347 333.4 13.4 330 9.4
2006-01-23 07:57:11 51°15.063 2°54.336 333.5 13.3 330 9.4
2006-01-23 07:57:17 51°15.082 2°54.318 334.1 13.3 331 9.5
2006-01-23 07:57:21 51°15.095 2°54.306 334.5 13.4 330 9.5
2006-01-23 07:57:27 51°15.114 2°54.289 334.9 13.3 331 9.5
2006-01-23 07:57:32 51°15.131 2°54.275 335.3 13.4 331 9.6
2006-01-23 07:57:36 51°15.144 2°54.264 335.7 13.4 332 9.7
2006-01-23 07:57:41 51°15.16 2°54.249 336 13.4 331 9.8
2006-01-23 07:57:47 51°15.18 2°54.232 336 13.4 331 9.8
2006-01-23 07:57:52 51°15.196 2°54.217 336 13.4 330 9.8
2006-01-23 07:57:57 51°15.212 2°54.203 336 13.4 330 9.8
2006-01-23 07:58:01 51°15.225 2°54.191 335.9 13.4 331 9.9
2006-01-23 07:58:07 51°15.244 2°54.173 335.8 13.4 330 10
2006-01-23 07:58:12 51°15.26 2°54.158 335.4 13.4 330 10
2006-01-23 07:58:16 51°15.273 2°54.146 335.4 13.4 330 10.1
2006-01-23 07:58:21 51°15.289 2°54.132 335.2 13.4 330 10.2
2006-01-23 07:58:27 51°15.308 2°54.113 335.2 13.5 329 10.2
2006-01-23 07:58:32 51°15.324 2°54.099 335 13.5 330 10.3
2006-01-23 07:58:37 51°15.341 2°54.084 335.1 13.5 330 10.3
2006-01-23 07:58:41 51°15.354 2°54.072 335.3 13.5 331 10.5
2006-01-23 07:58:47 51°15.374 2°54.054 335.6 13.5 331 10.5
2006-01-23 07:58:52 51°15.39 2°54.039 335.8 13.5 331 10.6
2006-01-23 07:58:57 51°15.406 2°54.025 336 13.5 330 10.7
2006-01-23 07:59:01 51°15.419 2°54.013 335.8 13.5 331 10.7
2006-01-23 07:59:05 51°15.432 2°54.001 335.8 13.6 331 10.7
2006-01-23 07:59:12 51°15.455 2°53.98 335.6 13.6 330 11
2006-01-23 07:59:17 51°15.472 2°53.965 335.4 13.6 330 10.9
2006-01-23 07:59:21 51°15.485 2°53.953 335.2 13.5 330 11.2
2006-01-23 07:59:25 51°15.497 2°53.941 335 13.5 330 11.1
2006-01-23 07:59:31 51°15.517 2°53.924 335.1 13.6 331 11
2006-01-23 07:59:37 51°15.536 2°53.906 335.3 13.6 331 11.2
2006-01-23 07:59:41 51°15.549 2°53.895 335.5 13.6 331 11.2
2006-01-23 07:59:45 51°15.562 2°53.883 335.7 13.7 331 11.3
2006-01-23 07:59:52 51°15.585 2°53.862 335.7 13.7 331 11.4
2006-01-23 07:59:56 51°15.599 2°53.85 335.7 13.6 331 11.4
2006-01-23 08:00:02 51°15.619 2°53.832 335.6 13.7 331 11.4
2006-01-23 08:00:05 51°15.629 2°53.824 335.6 13.7 331 11.5
2006-01-23 08:00:12 51°15.651 2°53.803 335.6 13.5 330 11.6
2006-01-23 08:00:16 51°15.664 2°53.791 335.3 13.5 330 11.6
2006-01-23 08:00:21 51°15.68 2°53.776 335 13.6 330 11.6
2006-01-23 08:00:25 51°15.693 2°53.764 334.8 13.6 330 11.7
2006-01-23 08:00:32 51°15.716 2°53.743 334.8 13.6 330 11.7
2006-01-23 08:00:37 51°15.732 2°53.728 334.9 13.6 331 11.7
2006-01-23 08:00:41 51°15.746 2°53.716 335.1 13.5 331 11.7
2006-01-23 08:00:45 51°15.759 2°53.705 335.3 13.5 331 11.7
2006-01-23 08:00:52 51°15.782 2°53.684 335.5 13.5 331 11.9
2006-01-23 08:00:57 51°15.799 2°53.67 335.6 13.5 331 11.9
2006-01-23 08:01:01 51°15.812 2°53.658 335.6 13.6 331 12
2006-01-23 08:01:05 51°15.825 2°53.646 335.4 13.6 331 12
2006-01-23 08:01:12 51°15.848 2°53.625 335.2 13.6 331 12
2006-01-23 08:01:17 51°15.864 2°53.61 334.9 13.6 330 12.1
2006-01-23 08:01:21 51°15.877 2°53.598 334.6 13.6 330 12
2006-01-23 08:01:25 51°15.89 2°53.585 334.5 13.6 330 12.1
2006-01-23 08:01:32 51°15.913 2°53.565 334.5 13.6 330 12.2
2006-01-23 08:01:37 51°15.929 2°53.55 334.6 13.5 330 12.2
2006-01-23 08:01:41 51°15.942 2°53.538 334.8 13.6 331 12.3
2006-01-23 08:01:47 51°15.962 2°53.52 335.2 13.6 331 12.3
2006-01-23 08:01:52 51°15.978 2°53.506 335.2 13.6 331 12.4
2006-01-23 08:01:57 51°15.995 2°53.491 335.3 13.6 331 12.3
2006-01-23 08:02:01 51°16.008 2°53.479 335.5 13.6 331 12.4
2006-01-23 08:02:07 51°16.028 2°53.462 335.5 13.6 331 12.4
2006-01-23 08:02:12 51°16.044 2°53.447 335.6 13.7 331 12.6
2006-01-23 08:02:16 51°16.057 2°53.436 335.6 13.6 331 12.5
2006-01-23 08:02:21 51°16.074 2°53.421 335.3 13.5 331 12.5
2006-01-23 08:02:25 51°16.087 2°53.409 335.2 13.6 331 12.6
2006-01-23 08:02:32 51°16.11 2°53.389 335.3 13.6 331 12.7
2006-01-23 08:02:36 51°16.123 2°53.377 335.2 13.6 330 12.7
2006-01-23 08:02:41 51°16.139 2°53.362 334.8 13.6 331 12.7
2006-01-23 08:02:45 51°16.152 2°53.35 334.8 13.6 330 12.7
2006-01-23 08:02:51 51°16.172 2°53.332 334.8 13.5 330 12.7
2006-01-23 08:02:56 51°16.188 2°53.318 334.8 13.6 330 12.7
2006-01-23 08:03:01 51°16.204 2°53.303 334.6 13.6 330 12.7
2006-01-23 08:03:07 51°16.224 2°53.285 334.5 13.5 331 12.7
2006-01-23 08:03:12 51°16.24 2°53.271 334.8 13.6 331 12.7
2006-01-23 08:03:16 51°16.254 2°53.259 335.4 13.6 332 12.7
2006-01-23 08:03:21 51°16.27 2°53.246 336.3 13.6 332 12.9
2006-01-23 08:03:25 51°16.284 2°53.235 336.8 13.5 333 12.8
2006-01-23 08:03:32 51°16.307 2°53.215 337.2 13.6 333 12.9
2006-01-23 08:03:36 51°16.32 2°53.204 337.2 13.5 333 12.7
2006-01-23 08:03:41 51°16.337 2°53.19 337.5 13.5 333 12.9
2006-01-23 08:03:45 51°16.35 2°53.18 337.5 13.5 333 12.9
2006-01-23 08:03:52 51°16.374 2°53.16 337.4 13.5 333 12.8
2006-01-23 08:03:56 51°16.387 2°53.15 337.4 13.5 334 12.8
2006-01-23 08:04:01 51°16.404 2°53.137 337.6 13.5 333 12.9
2006-01-23 08:04:05 51°16.417 2°53.126 337.9 13.6 333 12.9
2006-01-23 08:04:11 51°16.437 2°53.11 337.9 13.6 333 12.9
2006-01-23 08:04:17 51°16.457 2°53.094 337.6 13.5 333 12.8
2006-01-23 08:04:22 51°16.474 2°53.079 337.5 13.6 332 12.8
2006-01-23 08:04:27 51°16.491 2°53.066 337.1 13.6 333 12.8
2006-01-23 08:04:32 51°16.507 2°53.052 336.9 13.5 332 12.7
2006-01-23 08:04:37 51°16.524 2°53.038 336.9 13.5 333 12.7
2006-01-23 08:04:42 51°16.541 2°53.025 336.8 13.6 333 12.6
2006-01-23 08:04:46 51°16.554 2°53.013 336.9 13.6 333 12.5
2006-01-23 08:04:52 51°16.574 2°52.998 337.1 13.5 333 12.5
2006-01-23 08:04:56 51°16.587 2°52.987 337.3 13.5 334 12.5
2006-01-23 08:05:01 51°16.604 2°52.973 337.6 13.5 333 12.5
2006-01-23 08:05:07 51°16.625 2°52.958 337.5 13.5 334 12.6
2006-01-23 08:05:12 51°16.641 2°52.944 337.5 13.5 334 12.4
2006-01-23 08:05:17 51°16.658 2°52.931 337.4 13.5 333 12.3
2006-01-23 08:05:21 51°16.672 2°52.92 337.2 13.7 333 12
2006-01-23 08:05:27 51°16.692 2°52.903 337.1 13.6 333 11.9
2006-01-23 08:05:32 51°16.709 2°52.89 336.7 13.6 333 12
2006-01-23 08:05:37 51°16.725 2°52.876 336.7 13.5 333 11.8
2006-01-23 08:05:42 51°16.742 2°52.863 336.6 13.6 332 11.6
2006-01-23 08:05:46 51°16.755 2°52.851 336.7 13.5 333 11.4
2006-01-23 08:05:52 51°16.775 2°52.835 337.3 13.5 333 10.9
2006-01-23 08:05:57 51°16.792 2°52.821 337.1 13.4 333 10.6
2006-01-23 08:06:01 51°16.805 2°52.811 337.1 13.5 333 10.3
2006-01-23 08:06:05 51°16.818 2°52.8 337.2 13.5 334 10.3
2006-01-23 08:06:12 51°16.842 2°52.781 337.5 13.5 333 10.3
2006-01-23 08:06:16 51°16.855 2°52.77 337.4 13.5 332 10.3
2006-01-23 08:06:21 51°16.871 2°52.756 336.6 13.5 332 10.2
2006-01-23 08:06:26 51°16.887 2°52.741 335.9 13.5 330 10.1
2006-01-23 08:06:32 51°16.907 2°52.723 335.2 13.5 331 10.3
2006-01-23 08:06:37 51°16.923 2°52.708 334.6 13.5 329 10.4
2006-01-23 08:06:41 51°16.936 2°52.695 333.8 13.5 330 10.4
2006-01-23 08:06:45 51°16.949 2°52.683 333.8 13.6 330 10.6
2006-01-23 08:06:51 51°16.968 2°52.665 334.3 13.6 330 10.7
2006-01-23 08:06:56 51°16.985 2°52.651 334.8 13.6 330 10.8
2006-01-23 08:07:02 51°17.005 2°52.633 335.1 13.6 331 11
2006-01-23 08:07:05 51°17.015 2°52.624 335.3 13.7 331 10.9
2006-01-23 08:07:12 51°17.038 2°52.603 336 13.7 331 10.8
2006-01-23 08:07:16 51°17.051 2°52.592 335.8 13.7 331 10.6
2006-01-23 08:07:21 51°17.067 2°52.577 335.4 13.6 331 10.5
2006-01-23 08:07:27 51°17.087 2°52.559 335.3 13.5 330 10.5
2006-01-23 08:07:32 51°17.103 2°52.544 335 13.5 330 10.4
2006-01-23 08:07:37 51°17.12 2°52.529 334.4 13.7 330 10.6
2006-01-23 08:07:42 51°17.136 2°52.514 334.3 13.6 329 10.6
2006-01-23 08:07:47 51°17.152 2°52.498 334 13.6 329 10.6
2006-01-23 08:07:52 51°17.168 2°52.483 333.8 13.7 329 10.7
2006-01-23 08:07:57 51°17.184 2°52.467 333.8 13.7 329 10.7
2006-01-23 08:08:01 51°17.197 2°52.455 333.8 13.7 329 10.8
2006-01-23 08:08:05 51°17.21 2°52.442 333.8 13.6 329 10.9
2006-01-23 08:08:12 51°17.233 2°52.42 333.8 13.7 329 10.9
2006-01-23 08:08:17 51°17.249 2°52.404 333.5 13.7 328 11
2006-01-23 08:08:21 51°17.262 2°52.391 332.9 13.7 327 11.1
2006-01-23 08:08:27 51°17.281 2°52.371 332.4 13.7 327 11.2
2006-01-23 08:08:32 51°17.296 2°52.355 331.9 13.7 327 11.3
2006-01-23 08:08:37 51°17.312 2°52.338 331.7 13.6 327 11.2
2006-01-23 08:08:41 51°17.325 2°52.325 331.4 13.6 327 11.2
2006-01-23 08:08:46 51°17.341 2°52.308 331.5 13.6 326 11.3
2006-01-23 08:08:52 51°17.359 2°52.287 330.8 13.6 325 11.3
2006-01-23 08:08:57 51°17.374 2°52.269 329.1 13.6 323 11.3
2006-01-23 08:09:02 51°17.388 2°52.25 327.5 13.6 322 11.3
2006-01-23 08:09:07 51°17.403 2°52.23 326.3 13.6 320 11.3
2006-01-23 08:09:12 51°17.416 2°52.209 324.7 13.5 318 11.2
2006-01-23 08:09:17 51°17.429 2°52.189 322.1 13.5 315 11.3
2006-01-23 08:09:21 51°17.439 2°52.171 320 13.5 314 11.2
2006-01-23 08:09:25 51°17.449 2°52.154 318.6 13.5 313 11.3
2006-01-23 08:09:32 51°17.466 2°52.122 317.2 13.5 310 11.3
2006-01-23 08:09:36 51°17.476 2°52.103 314.6 13.5 308 11.3
2006-01-23 08:09:41 51°17.487 2°52.079 312.7 13.5 306 11.3
2006-01-23 08:09:47 51°17.499 2°52.049 310.6 13.5 306 11.3
2006-01-23 08:09:52 51°17.51 2°52.025 309.2 13.5 304 11.4
2006-01-23 08:09:56 51°17.518 2°52.005 308.4 13.5 303 11.4
2006-01-23 08:10:01 51°17.528 2°51.98 307.1 13.4 303 11.3
2006-01-23 08:10:07 51°17.54 2°51.95 306.8 13.5 303 11.4
2006-01-23 08:10:12 51°17.55 2°51.924 306.6 13.5 302 11.3
2006-01-23 08:10:16 51°17.558 2°51.904 306 13.4 302 11.3
2006-01-23 08:10:21 51°17.567 2°51.878 305.4 13.5 300 11.2
2006-01-23 08:10:27 51°17.578 2°51.848 304.2 13.5 301 11.2
2006-01-23 08:10:32 51°17.588 2°51.822 304.1 13.5 299 11.2
2006-01-23 08:10:37 51°17.597 2°51.796 303.5 13.5 301 11.1
2006-01-23 08:10:41 51°17.605 2°51.776 303.4 13.4 299 10.9
2006-01-23 08:10:47 51°17.616 2°51.743 303.3 13.5 299 10.9
2006-01-23 08:10:52 51°17.625 2°51.717 302.1 13.4 298 10.8
2006-01-23 08:10:57 51°17.633 2°51.691 301.6 13.4 297 10.8
2006-01-23 08:11:01 51°17.64 2°51.67 301.3 13.4 298 10.7
2006-01-23 08:11:07 51°17.65 2°51.638 300.6 13.4 297 10.8
2006-01-23 08:11:12 51°17.658 2°51.612 300.6 13.5 297 10.7
2006-01-23 08:11:17 51°17.667 2°51.586 300.2 13.5 297 10.7
2006-01-23 08:11:22 51°17.676 2°51.56 300.7 13.4 297 10.7
2006-01-23 08:11:27 51°17.684 2°51.533 301.2 13.5 297 10.7
2006-01-23 08:11:32 51°17.693 2°51.507 301 13.5 298 10.6
2006-01-23 08:11:36 51°17.7 2°51.486 301.3 13.5 298 10.7
2006-01-23 08:11:41 51°17.708 2°51.46 301.3 13.4 297 10.8
2006-01-23 08:11:47 51°17.719 2°51.428 301 13.5 299 10.7
2006-01-23 08:11:51 51°17.726 2°51.407 301.4 13.5 297 10.8
2006-01-23 08:11:56 51°17.735 2°51.38 301 13.4 297 10.8
2006-01-23 08:12:01 51°17.744 2°51.354 301 13.5 298 10.9
2006-01-23 08:12:07 51°17.754 2°51.323 300.7 13.5 297 10.9
2006-01-23 08:12:12 51°17.763 2°51.296 300.9 13.5 298 11
2006-01-23 08:12:17 51°17.772 2°51.27 300.9 13.5 298 11.1
2006-01-23 08:12:22 51°17.781 2°51.244 301 13.6 298 11.1
2006-01-23 08:12:27 51°17.79 2°51.217 300.8 13.5 297 11.2
2006-01-23 08:12:32 51°17.798 2°51.191 300.4 13.4 297 11.2
2006-01-23 08:12:37 51°17.807 2°51.164 300.4 13.5 297 11.3
2006-01-23 08:12:41 51°17.814 2°51.143 300.4 13.5 297 11.4
2006-01-23 08:12:45 51°17.821 2°51.122 300.7 13.4 297 11.5
2006-01-23 08:12:52 51°17.833 2°51.084 300.4 13.4 297 11.7
2006-01-23 08:12:57 51°17.841 2°51.058 299.9 13.4 296 11.8
2006-01-23 08:13:01 51°17.847 2°51.036 299.7 13.4 295 12
2006-01-23 08:13:07 51°17.857 2°51.004 299.1 13.5 295 12
2006-01-23 08:13:11 51°17.864 2°50.983 299.7 13.4 297 12.2
2006-01-23 08:13:17 51°17.874 2°50.951 300.5 13.5 298 12.2
2006-01-23 08:13:21 51°17.882 2°50.93 300.7 13.4 298 12.4
2006-01-23 08:13:25 51°17.889 2°50.909 300.9 13.5 297 12.5
2006-01-23 08:13:31 51°17.899 2°50.878 300.7 13.4 297 12.7
2006-01-23 08:13:36 51°17.907 2°50.851 300.7 13.4 296 12.7
2006-01-23 08:13:42 51°17.917 2°50.819 299.9 13.2 295 12.9
2006-01-23 08:13:47 51°17.925 2°50.793 299.1 13.3 296 13.2
2006-01-23 08:13:52 51°17.934 2°50.766 299.7 13.4 296 13.1
2006-01-23 08:13:56 51°17.94 2°50.745 300.3 13.4 296 13.2
2006-01-23 08:14:01 51°17.948 2°50.719 299.9 13.3 296 13.3
2006-01-23 08:14:05 51°17.955 2°50.697 299.7 13.3 296 13.3
2006-01-23 08:14:11 51°17.965 2°50.665 299.5 13.3 295 13.4
2006-01-23 08:14:16 51°17.972 2°50.639 299 13.3 294 13.5
2006-01-23 08:14:21 51°17.981 2°50.612 298.4 13.4 295 13.5
2006-01-23 08:14:25 51°17.987 2°50.59 298.5 13.4 295 13.5
2006-01-23 08:14:32 51°17.998 2°50.553 298.7 13.4 295 13.7
2006-01-23 08:14:36 51°18.005 2°50.531 298.6 13.4 295 13.7
2006-01-23 08:14:41 51°18.012 2°50.504 298.5 13.4 294 13.7
2006-01-23 08:14:46 51°18.021 2°50.477 298.3 13.5 295 13.8
2006-01-23 08:14:52 51°18.03 2°50.445 298.4 13.4 295 13.9
2006-01-23 08:14:57 51°18.038 2°50.418 298.7 13.4 295 14
2006-01-23 08:15:01 51°18.045 2°50.397 298.3 13.3 296 14.1
2006-01-23 08:15:05 51°18.051 2°50.376 299 13.3 294 14.2
2006-01-23 08:15:12 51°18.062 2°50.338 298.4 13.3 295 14.4
2006-01-23 08:15:17 51°18.07 2°50.311 298.5 13.4 293 14.4
2006-01-23 08:15:22 51°18.078 2°50.284 298.4 13.4 294 14.5
2006-01-23 08:15:27 51°18.086 2°50.257 298.6 13.4 295 14.4
2006-01-23 08:15:31 51°18.092 2°50.235 298.8 13.3 294 14.5
2006-01-23 08:15:37 51°18.101 2°50.203 298.3 13.3 293 14.5
2006-01-23 08:15:41 51°18.107 2°50.181 297.8 13.3 294 14.6
2006-01-23 08:15:45 51°18.113 2°50.16 297.4 13.3 293 14.7
2006-01-23 08:15:51 51°18.122 2°50.127 297.5 13.3 293 14.6
2006-01-23 08:15:56 51°18.129 2°50.1 297.6 13.3 293 14.6
2006-01-23 08:16:02 51°18.138 2°50.067 297.5 13.3 293 14.6
2006-01-23 08:16:07 51°18.146 2°50.04 297.7 13.3 293 14.6
2006-01-23 08:16:12 51°18.153 2°50.013 297.8 13.4 293 14.7
2006-01-23 08:16:16 51°18.159 2°49.992 298.3 13.3 294 14.7
2006-01-23 08:16:21 51°18.167 2°49.965 298.7 13.3 295 14.7
2006-01-23 08:16:26 51°18.175 2°49.938 298.5 13.4 294 14.7
2006-01-23 08:16:32 51°18.184 2°49.906 298.5 13.4 295 14.7
2006-01-23 08:16:37 51°18.192 2°49.879 298.7 13.4 294 14.6
2006-01-23 08:16:41 51°18.198 2°49.857 298.5 13.3 294 14.8
2006-01-23 08:16:46 51°18.205 2°49.83 297.7 13.3 293 14.5
2006-01-23 08:16:52 51°18.215 2°49.798 297.9 13.3 293 14.5
2006-01-23 08:16:57 51°18.222 2°49.77 298 13.3 293 14.5
2006-01-23 08:17:01 51°18.228 2°49.749 297.8 13.3 293 14.5
2006-01-23 08:17:06 51°18.235 2°49.722 297.7 13.2 293 14.4
2006-01-23 08:17:12 51°18.244 2°49.689 297.9 13.4 293 14.3
2006-01-23 08:17:17 51°18.252 2°49.662 298 13.4 294 14.2
2006-01-23 08:17:21 51°18.258 2°49.641 298.6 13.3 293 14.1
2006-01-23 08:17:26 51°18.266 2°49.614 298 13.3 294 13.9
2006-01-23 08:17:31 51°18.273 2°49.587 298.5 13.4 293 13.9
2006-01-23 08:17:36 51°18.281 2°49.56 298.1 13.4 294 13.7
2006-01-23 08:17:41 51°18.288 2°49.532 298.1 13.4 292 13.5
2006-01-23 08:17:46 51°18.295 2°49.505 298 13.4 294 13.2
2006-01-23 08:17:51 51°18.303 2°49.478 298 13.3 293 12.9
2006-01-23 08:17:57 51°18.312 2°49.445 298.3 13.3 293 12.3
2006-01-23 08:18:01 51°18.319 2°49.423 298.4 13.4 294 12
2006-01-23 08:18:05 51°18.325 2°49.402 298.7 13.3 295 12.2
2006-01-23 08:18:11 51°18.334 2°49.369 299 13.4 293 12.4
2006-01-23 08:18:16 51°18.343 2°49.343 298.5 13.3 294 12.4
2006-01-23 08:18:22 51°18.351 2°49.31 298.2 13.3 291 12.2
2006-01-23 08:18:27 51°18.358 2°49.283 297.5 13.4 294 11.9
2006-01-23 08:18:32 51°18.366 2°49.256 297.4 13.3 292 11.9
2006-01-23 08:18:36 51°18.371 2°49.234 297.5 13.3 293 11.6
2006-01-23 08:18:41 51°18.379 2°49.207 297.9 13.2 293 11.4
2006-01-23 08:18:45 51°18.385 2°49.185 297.6 13.3 293 11.2
2006-01-23 08:18:52 51°18.396 2°49.148 298 13.3 293 11
2006-01-23 08:18:57 51°18.403 2°49.121 298.3 13.3 293 10.9
2006-01-23 08:19:01 51°18.408 2°49.099 299 13.3 294 11
2006-01-23 08:19:07 51°18.417 2°49.067 298.9 13.3 294 11.2
2006-01-23 08:19:12 51°18.425 2°49.04 299 13.4 295 11.3
2006-01-23 08:19:17 51°18.434 2°49.013 298.8 13.4 294 11.4
2006-01-23 08:19:21 51°18.441 2°48.99 299.3 13.5 294 11.4
2006-01-23 08:19:26 51°18.449 2°48.963 299.4 13.5 293 11.4
2006-01-23 08:19:32 51°18.458 2°48.93 299.3 13.4 295 11.3
2006-01-23 08:19:37 51°18.466 2°48.903 299 13.3 293 11.1
2006-01-23 08:19:41 51°18.472 2°48.881 298.3 13.3 293 11
2006-01-23 08:19:47 51°18.481 2°48.848 297.5 13.4 292 10.7
2006-01-23 08:19:52 51°18.489 2°48.821 297.4 13.4 293 10.8
2006-01-23 08:19:57 51°18.496 2°48.793 297.4 13.3 293 11.3
2006-01-23 08:20:02 51°18.504 2°48.765 297.5 13.4 293 11.5
2006-01-23 08:20:06 51°18.51 2°48.744 297.8 13.5 294 11.7
2006-01-23 08:20:12 51°18.519 2°48.711 299 13.6 294 11.8
2006-01-23 08:20:16 51°18.526 2°48.69 298.8 13.5 296 11.8
2006-01-23 08:20:21 51°18.533 2°48.662 299.1 13.5 293 11.6
2006-01-23 08:20:25 51°18.54 2°48.64 298.9 13.5 295 11.5
2006-01-23 08:20:32 51°18.551 2°48.603 298.8 13.5 294 11.5
2006-01-23 08:20:36 51°18.556 2°48.581 298.7 13.4 294 11.3
2006-01-23 08:20:41 51°18.564 2°48.554 298.4 13.4 294 11.5
2006-01-23 08:20:45 51°18.57 2°48.531 298.4 13.5 294 11.7
2006-01-23 08:20:51 51°18.58 2°48.5 298.6 13.5 294 12
2006-01-23 08:20:56 51°18.587 2°48.471 298.4 13.6 294 12.5
2006-01-23 08:21:01 51°18.595 2°48.444 298.3 13.6 293 13.1
2006-01-23 08:21:05 51°18.601 2°48.423 297.9 13.5 294 13.1
2006-01-23 08:21:12 51°18.611 2°48.384 298.1 13.5 293 13
2006-01-23 08:21:16 51°18.618 2°48.362 297.8 13.5 294 12.9
2006-01-23 08:21:21 51°18.625 2°48.335 297.8 13.4 293 13.3
2006-01-23 08:21:25 51°18.631 2°48.313 297.9 13.5 293 13.6
2006-01-23 08:21:32 51°18.642 2°48.275 297.6 13.5 294 13.9
2006-01-23 08:21:36 51°18.648 2°48.253 297.7 13.5 294 14.2
2006-01-23 08:21:41 51°18.656 2°48.226 298.3 13.5 294 14.4
2006-01-23 08:21:47 51°18.665 2°48.193 298.2 13.5 294 14.5
2006-01-23 08:21:52 51°18.673 2°48.166 298.3 13.5 294 14.5
2006-01-23 08:21:57 51°18.681 2°48.139 298.2 13.5 294 14.7
2006-01-23 08:22:01 51°18.687 2°48.117 298.3 13.5 294 14.8
2006-01-23 08:22:06 51°18.695 2°48.09 298 13.5 295 14.8
2006-01-23 08:22:11 51°18.702 2°48.062 297.7 13.5 293 14.9
2006-01-23 08:22:17 51°18.712 2°48.029 297.6 13.5 295 15.2
2006-01-23 08:22:21 51°18.718 2°48.007 297.6 13.5 294 15.3
2006-01-23 08:22:26 51°18.725 2°47.98 297.2 13.5 294 15.4
2006-01-23 08:22:31 51°18.733 2°47.953 297.6 13.5 295 15.6
2006-01-23 08:22:37 51°18.743 2°47.92 298.2 13.6 295 15.8
2006-01-23 08:22:41 51°18.75 2°47.899 298.2 13.5 295 15.9
2006-01-23 08:22:45 51°18.756 2°47.877 298.6 13.5 295 16.1
2006-01-23 08:22:52 51°18.767 2°47.839 298.8 13.5 295 16.3
2006-01-23 08:22:56 51°18.773 2°47.818 299 13.5 295 16.4
2006-01-23 08:23:01 51°18.782 2°47.791 299 13.5 297 16.6
2006-01-23 08:23:07 51°18.792 2°47.759 299.1 13.5 296 16.8
2006-01-23 08:23:12 51°18.799 2°47.732 299 13.4 296 16.9
2006-01-23 08:23:16 51°18.806 2°47.711 298.7 13.4 295 17
2006-01-23 08:23:21 51°18.814 2°47.684 297.9 13.3 294 17.3
2006-01-23 08:23:27 51°18.823 2°47.652 297.5 13.3 295 17.6
2006-01-23 08:23:32 51°18.831 2°47.625 297.8 13.3 294 17.9
2006-01-23 08:23:36 51°18.838 2°47.604 297.8 13.3 295 18.3
2006-01-23 08:23:41 51°18.845 2°47.577 298.3 13.3 295 18.6
2006-01-23 08:23:47 51°18.854 2°47.545 298.1 13.2 295 19.1
2006-01-23 08:23:52 51°18.861 2°47.519 298.2 13.2 294 19.5
2006-01-23 08:23:57 51°18.869 2°47.492 297.6 13.2 295 19.3
2006-01-23 08:24:01 51°18.875 2°47.471 298.5 13.2 295 18.9
2006-01-23 08:24:06 51°18.884 2°47.444 298.3 13.3 296 19.2
2006-01-23 08:24:12 51°18.893 2°47.412 298.9 13.3 295 19.4
2006-01-23 08:24:17 51°18.901 2°47.385 298.7 13.3 294 19.3
2006-01-23 08:24:21 51°18.906 2°47.364 297.9 13.3 294 19.5
2006-01-23 08:24:26 51°18.914 2°47.337 297.6 13.2 293 19.6
2006-01-23 08:24:32 51°18.922 2°47.305 297.5 13.3 295 19.7
2006-01-23 08:24:37 51°18.93 2°47.277 298.2 13.3 293 19.8
2006-01-23 08:24:41 51°18.937 2°47.256 297.8 13.4 295 20
2006-01-23 08:24:45 51°18.944 2°47.234 298.3 13.4 294 20.4
2006-01-23 08:24:51 51°18.954 2°47.203 298.6 13.4 296 20.4
2006-01-23 08:24:57 51°18.963 2°47.17 298.8 13.4 294 20.4
2006-01-23 08:25:02 51°18.97 2°47.143 298.8 13.4 296 20.5
2006-01-23 08:25:07 51°18.978 2°47.116 298.6 13.3 295 20.8
2006-01-23 08:25:12 51°18.986 2°47.09 298.4 13.3 295 21
2006-01-23 08:25:16 51°18.992 2°47.068 298.6 13.4 295 21
2006-01-23 08:25:21 51°19.001 2°47.04 298.3 13.4 295 21.1
2006-01-23 08:25:27 51°19.01 2°47.008 298.6 13.4 295 21.3
2006-01-23 08:25:31 51°19.017 2°46.987 298.6 13.4 295 21.4
2006-01-23 08:25:36 51°19.024 2°46.96 298 13.4 294 21.5
2006-01-23 08:25:41 51°19.032 2°46.933 297.7 13.4 295 21.6
2006-01-23 08:25:45 51°19.039 2°46.911 297.6 13.5 295 21.6
2006-01-23 08:25:52 51°19.05 2°46.874 298 13.4 295 21.7
2006-01-23 08:25:56 51°19.056 2°46.852 297.8 13.4 295 21.7
2006-01-23 08:26:01 51°19.063 2°46.825 298.3 13.5 295 21.7
2006-01-23 08:26:07 51°19.072 2°46.793 298 13.4 295 21.6
2006-01-23 08:26:12 51°19.081 2°46.767 297.9 13.4 295 21.7
2006-01-23 08:26:16 51°19.087 2°46.745 298 13.4 295 21.8
2006-01-23 08:26:21 51°19.095 2°46.718 298 13.4 295 21.7
2006-01-23 08:26:25 51°19.101 2°46.696 298 13.3 295 21.7
2006-01-23 08:26:31 51°19.111 2°46.664 297.5 13.4 294 21.8
2006-01-23 08:26:37 51°19.12 2°46.631 297.2 13.4 293 21.7
2006-01-23 08:26:41 51°19.126 2°46.61 296.8 13.4 294 21.9
2006-01-23 08:26:46 51°19.134 2°46.583 296.8 13.4 294 21.9
2006-01-23 08:26:52 51°19.143 2°46.55 296.9 13.4 294 21.9
2006-01-23 08:26:57 51°19.151 2°46.524 296.9 13.4 295 22.1
2006-01-23 08:27:01 51°19.157 2°46.502 297.5 13.3 294 22
2006-01-23 08:27:05 51°19.164 2°46.481 297.5 13.3 296 21.6
2006-01-23 08:27:11 51°19.173 2°46.448 297.6 13.4 294 21.3
2006-01-23 08:27:16 51°19.181 2°46.422 298 13.3 296 21.4
2006-01-23 08:27:21 51°19.189 2°46.395 297.9 13.4 295 21.4
2006-01-23 08:27:25 51°19.195 2°46.374 298 13.4 295 21.4
2006-01-23 08:27:31 51°19.205 2°46.341 297.9 13.4 295 21.6
2006-01-23 08:27:36 51°19.212 2°46.314 298 13.4 294 21.5
2006-01-23 08:27:41 51°19.22 2°46.287 296.6 13.3 294 21.5
2006-01-23 08:27:45 51°19.225 2°46.266 295.9 13.3 292 21.3
2006-01-23 08:27:51 51°19.234 2°46.233 295.2 13.2 293 21.1
2006-01-23 08:27:56 51°19.24 2°46.206 294.9 13.2 292 20.9
2006-01-23 08:28:01 51°19.248 2°46.179 295.1 13.3 293 20.6
2006-01-23 08:28:06 51°19.254 2°46.151 295.1 13.2 292 20.4
2006-01-23 08:28:11 51°19.261 2°46.124 294.7 13.3 292 20.1
2006-01-23 08:28:16 51°19.268 2°46.097 294.6 13.2 293 19.5
2006-01-23 08:28:21 51°19.275 2°46.07 294.7 13.3 291 19.1
2006-01-23 08:28:25 51°19.281 2°46.049 294.4 13.3 294 18.8
2006-01-23 08:28:31 51°19.289 2°46.016 295 13.3 290 18.3
2006-01-23 08:28:36 51°19.297 2°45.989 294.4 13.3 293 19
2006-01-23 08:28:41 51°19.303 2°45.962 295.4 13.3 292 19.1
2006-01-23 08:28:45 51°19.309 2°45.94 295.4 13.3 295 18.8
2006-01-23 08:28:52 51°19.319 2°45.902 295.9 13.3 292 18.1
2006-01-23 08:28:56 51°19.325 2°45.881 295.2 13.3 293 17.1
2006-01-23 08:29:01 51°19.332 2°45.853 295.4 13.3 291 17.9
2006-01-23 08:29:05 51°19.337 2°45.832 295 13.3 292 17.4
2006-01-23 08:29:12 51°19.347 2°45.794 294.8 13.2 292 16.2
2006-01-23 08:29:16 51°19.353 2°45.772 294.6 13.2 293 16.7
2006-01-23 08:29:21 51°19.36 2°45.745 295.4 13.3 293 16.7
2006-01-23 08:29:26 51°19.368 2°45.718 296.2 13.3 294 16.1
2006-01-23 08:29:31 51°19.375 2°45.691 296.2 13.3 294 15.5
2006-01-23 08:29:37 51°19.384 2°45.659 296.9 13.3 295 15
2006-01-23 08:29:41 51°19.389 2°45.637 297.3 13.3 293 13.5
2006-01-23 08:29:45 51°19.396 2°45.615 296.8 13.3 295 14.8
2006-01-23 08:29:51 51°19.404 2°45.583 296.9 13.3 293 13.6
2006-01-23 08:29:56 51°19.412 2°45.556 296.8 13.3 294 13.4
2006-01-23 08:30:01 51°19.419 2°45.529 296.9 13.2 293 13.7
2006-01-23 08:30:05 51°19.425 2°45.508 296.6 13.2 293 12.8
2006-01-23 08:30:11 51°19.434 2°45.475 296.1 13.3 292 12.8
2006-01-23 08:30:17 51°19.441 2°45.442 295.7 13.2 292 13.4
2006-01-23 08:30:21 51°19.447 2°45.42 295.4 13.3 292 13.1
2006-01-23 08:30:25 51°19.452 2°45.398 295.1 13.3 292 12.5
2006-01-23 08:30:32 51°19.462 2°45.36 295.6 13.3 292 11.8
2006-01-23 08:30:36 51°19.468 2°45.339 296.1 13.2 293 10.7
2006-01-23 08:30:41 51°19.475 2°45.312 296.8 13.1 293 12.1
2006-01-23 08:30:45 51°19.48 2°45.29 296.7 13.1 293 11.1
2006-01-23 08:30:52 51°19.49 2°45.252 296.8 13.2 294 12.4
2006-01-23 08:30:56 51°19.496 2°45.231 296.6 13.3 292 11.6
2006-01-23 08:31:01 51°19.504 2°45.204 296.8 13.4 294 13.5
2006-01-23 08:31:05 51°19.509 2°45.182 297.2 13.3 293 14.3
2006-01-23 08:31:12 51°19.52 2°45.144 296.8 13.4 293 15.5
2006-01-23 08:31:16 51°19.526 2°45.122 296.6 13.4 294 16.9
2006-01-23 08:31:21 51°19.533 2°45.095 297.1 13.5 294 16.9
2006-01-23 08:31:25 51°19.539 2°45.073 296.9 13.4 294 16.6
2006-01-23 08:31:31 51°19.548 2°45.041 297.1 13.3 294 18
2006-01-23 08:31:36 51°19.556 2°45.014 297.5 13.3 294 19.1
2006-01-23 08:31:41 51°19.564 2°44.987 296.9 13.3 294 19.9
2006-01-23 08:31:45 51°19.57 2°44.966 296.6 13.3 295 20.9
2006-01-23 08:31:51 51°19.579 2°44.934 296.5 13.3 293 21.3
2006-01-23 08:31:56 51°19.587 2°44.907 296.8 13.3 295 21.5
2006-01-23 08:32:01 51°19.594 2°44.88 296.4 13.3 293 21.7
2006-01-23 08:32:05 51°19.6 2°44.858 296.4 13.2 293 21.9
2006-01-23 08:32:11 51°19.608 2°44.826 295.8 13.2 293 22.1
2006-01-23 08:32:16 51°19.616 2°44.799 295.4 13.2 293 22.2
2006-01-23 08:32:21 51°19.623 2°44.772 295.6 13.3 293 22.3
2006-01-23 08:32:25 51°19.629 2°44.75 295.4 13.3 293 22.3
2006-01-23 08:32:31 51°19.637 2°44.718 296 13.2 293 22.5
2006-01-23 08:32:36 51°19.644 2°44.691 296 13.2 293 22.5
2006-01-23 08:32:41 51°19.651 2°44.664 296.1 13.3 293 22.5
2006-01-23 08:32:45 51°19.657 2°44.643 295.7 13.3 294 22.6
2006-01-23 08:32:52 51°19.667 2°44.604 296.5 13.3 292 22.8
2006-01-23 08:32:56 51°19.673 2°44.583 296.4 13.3 293 22.7
2006-01-23 08:33:01 51°19.68 2°44.556 296.2 13.3 293 22.9
2006-01-23 08:33:05 51°19.686 2°44.534 296.6 13.3 293 23
2006-01-23 08:33:12 51°19.696 2°44.496 296.5 13.4 293 23.1
2006-01-23 08:33:16 51°19.702 2°44.474 296.4 13.4 293 23.1
2006-01-23 08:33:21 51°19.709 2°44.447 296.5 13.4 294 23.4